createdAt,value
2019-02-23T00:02:02.067Z,72.41
2019-02-23T00:04:33.231Z,72.19
2019-02-23T00:07:03.331Z,71.71
2019-02-23T00:09:33.509Z,71.73
2019-02-23T00:12:04.775Z,71.71
2019-02-23T00:14:34.981Z,70.86
2019-02-23T00:17:05.135Z,70.74
2019-02-23T00:19:35.255Z,71.09
2019-02-23T00:22:05.750Z,70.42
2019-02-23T00:24:35.874Z,70.26
2019-02-23T00:27:06.065Z,70.74
2019-02-23T00:29:46.958Z,70.15
2019-02-23T00:32:17.527Z,70.72
2019-02-23T00:34:47.897Z,71.52
2019-02-23T00:37:21.543Z,70.61
2019-02-23T00:39:51.787Z,70.12
2019-02-23T00:42:22.019Z,69.97
2019-02-23T00:44:52.192Z,70.35
2019-02-23T00:47:22.366Z,70.14
2019-02-23T00:49:52.497Z,70.26
2019-02-23T00:52:22.657Z,70.25
2019-02-23T00:54:55.291Z,70.11
2019-02-23T00:57:25.763Z,70.72
2019-02-23T00:59:55.908Z,70.70
2019-02-23T01:02:26.073Z,70.64
2019-02-23T01:04:57.169Z,69.94
2019-02-23T01:07:27.330Z,70.07
2019-02-23T01:09:57.552Z,70.25
2019-02-23T01:12:27.686Z,69.94
2019-02-23T01:14:57.883Z,69.94
2019-02-23T01:17:28.170Z,70.76
2019-02-23T01:19:58.282Z,70.30
2019-02-23T01:22:28.404Z,71.58
2019-02-23T01:24:58.498Z,71.10
2019-02-23T01:27:28.665Z,71.83
2019-02-23T01:29:58.772Z,71.90
2019-02-23T01:32:28.918Z,72.39
2019-02-23T01:34:59.015Z,72.20
2019-02-23T01:37:29.133Z,72.40
2019-02-23T01:39:59.258Z,71.93
2019-02-23T01:42:29.502Z,71.59
2019-02-23T01:44:59.605Z,71.99
2019-02-23T01:47:29.752Z,70.96
2019-02-23T01:50:00.382Z,72.31
2019-02-23T01:52:31.561Z,72.36
2019-02-23T01:55:01.674Z,72.46
2019-02-23T01:57:31.851Z,72.03
2019-02-23T02:00:01.999Z,72.42
2019-02-23T02:02:33.777Z,72.09
2019-02-23T02:05:03.878Z,72.87
2019-02-23T02:07:35.190Z,72.65
2019-02-23T02:10:07.474Z,71.89
2019-02-23T02:12:37.656Z,71.81
2019-02-23T02:15:10.988Z,71.48
2019-02-23T02:17:41.247Z,71.54
2019-02-23T02:20:11.853Z,71.55
2019-02-23T02:22:42.059Z,70.64
2019-02-23T02:25:12.262Z,70.48
2019-02-23T02:27:42.475Z,70.34
2019-02-23T02:30:12.777Z,71.00
2019-02-23T02:32:42.914Z,70.58
2019-02-23T02:35:13.109Z,69.93
2019-02-23T02:37:43.257Z,70.15
2019-02-23T02:40:13.467Z,70.58
2019-02-23T02:42:43.561Z,71.21
2019-02-23T02:45:13.970Z,71.14
2019-02-23T02:47:44.027Z,70.77
2019-02-23T02:50:23.866Z,71.00
2019-02-23T02:52:46.274Z,70.31
2019-02-23T02:55:16.428Z,70.68
2019-02-23T02:57:46.628Z,70.10
2019-02-23T03:00:16.813Z,70.06
2019-02-23T03:02:49.852Z,69.98
2019-02-23T03:05:20.032Z,71.11
2019-02-23T03:07:50.183Z,71.13
2019-02-23T03:10:20.306Z,71.00
2019-02-23T03:12:50.448Z,70.75
2019-02-23T03:15:20.642Z,70.33
2019-02-23T03:17:50.810Z,70.64
2019-02-23T03:20:21.071Z,70.21
2019-02-23T03:22:51.293Z,70.30
2019-02-23T03:25:21.661Z,70.10
2019-02-23T03:27:51.846Z,71.26
2019-02-23T03:30:22.227Z,70.81
2019-02-23T03:32:54.468Z,70.99
2019-02-23T03:35:24.682Z,70.75
2019-02-23T03:37:55.004Z,70.50
2019-02-23T03:40:25.208Z,70.89
2019-02-23T03:42:55.567Z,70.68
2019-02-23T03:45:25.783Z,70.31
2019-02-23T03:47:55.920Z,70.59
2019-02-23T03:50:26.211Z,70.47
2019-02-23T03:52:56.469Z,70.78
2019-02-23T03:55:26.699Z,70.36
2019-02-23T03:57:58.553Z,71.12
2019-02-23T04:00:29.268Z,71.58
2019-02-23T04:03:00.600Z,71.30
2019-02-23T04:05:31.868Z,70.39
2019-02-23T04:08:02.032Z,71.09
2019-02-23T04:10:33.193Z,70.64
2019-02-23T04:13:03.374Z,70.73
2019-02-23T04:15:33.735Z,70.53
2019-02-23T04:18:03.888Z,70.15
2019-02-23T04:20:34.034Z,70.25
2019-02-23T04:23:04.197Z,70.47
2019-02-23T04:25:34.372Z,71.02
2019-02-23T04:28:04.575Z,71.56
2019-02-23T04:30:34.717Z,71.44
2019-02-23T04:33:07.850Z,70.92
2019-02-23T04:35:39.043Z,71.41
2019-02-23T04:38:09.151Z,71.31
2019-02-23T04:40:39.332Z,71.60
2019-02-23T04:43:12.191Z,70.62
2019-02-23T04:45:42.315Z,70.36
2019-02-23T04:48:12.504Z,70.19
2019-02-23T04:50:42.593Z,70.63
2019-02-23T04:53:12.727Z,70.50
2019-02-23T04:55:42.862Z,71.34
2019-02-23T04:58:13.063Z,71.06
2019-02-23T05:00:45.007Z,70.96
2019-02-23T05:03:16.267Z,70.84
2019-02-23T05:05:46.536Z,71.80
2019-02-23T05:08:16.660Z,71.92
2019-02-23T05:10:46.778Z,71.82
2019-02-23T05:13:16.899Z,71.96
2019-02-23T05:15:47.077Z,72.56
2019-02-23T05:18:17.202Z,73.35
2019-02-23T05:20:47.416Z,73.59
2019-02-23T05:23:17.581Z,73.34
2019-02-23T05:25:50.724Z,72.45
2019-02-23T05:28:20.852Z,72.69
2019-02-23T05:30:51.056Z,72.82
2019-02-23T05:33:21.219Z,72.26
2019-02-23T05:35:51.315Z,72.61
2019-02-23T05:38:21.483Z,72.95
2019-02-23T05:40:51.717Z,73.46
2019-02-23T05:43:22.839Z,73.58
2019-02-23T05:45:52.954Z,73.87
2019-02-23T05:48:23.122Z,74.54
2019-02-23T05:50:53.504Z,74.05
2019-02-23T05:53:23.724Z,73.27
2019-02-23T05:55:53.823Z,73.51
2019-02-23T05:58:23.988Z,73.80
2019-02-23T06:00:54.206Z,73.34
2019-02-23T06:03:24.348Z,73.55
2019-02-23T06:05:54.527Z,74.05
2019-02-23T06:08:24.692Z,74.13
2019-02-23T06:10:55.019Z,74.34
2019-02-23T06:13:29.575Z,74.01
2019-02-23T06:16:03.305Z,74.37
2019-02-23T06:18:33.638Z,74.88
2019-02-23T06:21:09.616Z,75.00
2019-02-23T06:23:39.977Z,74.09
2019-02-23T06:26:10.170Z,73.22
2019-02-23T06:28:41.133Z,72.48
2019-02-23T06:31:16.064Z,72.63
2019-02-23T06:33:46.249Z,73.23
2019-02-23T06:36:16.472Z,73.08
2019-02-23T06:38:46.685Z,72.64
2019-02-23T06:41:17.108Z,72.95
2019-02-23T06:43:47.484Z,72.51
2019-02-23T06:46:17.714Z,73.60
2019-02-23T06:48:47.856Z,72.57
2019-02-23T06:51:17.974Z,72.66
2019-02-23T06:53:48.140Z,72.67
2019-02-23T06:56:18.444Z,73.14
2019-02-23T06:58:49.160Z,72.67
2019-02-23T07:01:19.267Z,72.07
2019-02-23T07:03:49.724Z,72.06
2019-02-23T07:06:19.831Z,71.63
2019-02-23T07:08:50.008Z,72.60
2019-02-23T07:11:21.194Z,72.29
2019-02-23T07:13:51.406Z,71.92
2019-02-23T07:16:21.819Z,71.66
2019-02-23T07:18:52.218Z,73.33
2019-02-23T07:21:22.397Z,73.55
2019-02-23T07:23:52.588Z,73.48
2019-02-23T07:26:22.821Z,72.81
2019-02-23T07:28:54.209Z,72.44
2019-02-23T07:31:24.670Z,72.10
2019-02-23T07:33:54.847Z,71.41
2019-02-23T07:36:25.093Z,70.83
2019-02-23T07:38:55.225Z,69.92
2019-02-23T07:41:26.693Z,70.58
2019-02-23T07:43:56.862Z,71.31
2019-02-23T07:46:27.085Z,70.69
2019-02-23T07:48:57.325Z,69.56
2019-02-23T07:51:27.567Z,69.11
2019-02-23T07:53:57.877Z,68.52
2019-02-23T07:56:28.167Z,68.61
2019-02-23T07:58:58.442Z,69.34
2019-02-23T08:01:28.652Z,68.69
2019-02-23T08:03:59.795Z,68.62
2019-02-23T08:06:29.961Z,68.42
2019-02-23T08:09:00.185Z,68.45
2019-02-23T08:11:30.441Z,69.24
2019-02-23T08:14:00.585Z,68.42
2019-02-23T08:16:30.855Z,67.98
2019-02-23T08:19:00.981Z,67.32
2019-02-23T08:21:31.509Z,66.81
2019-02-23T08:24:01.783Z,67.55
2019-02-23T08:26:32.289Z,67.24
2019-02-23T08:29:07.616Z,66.44
2019-02-23T08:31:38.162Z,67.15
2019-02-23T08:34:08.326Z,67.12
2019-02-23T08:36:38.497Z,66.27
2019-02-23T08:39:08.727Z,65.97
2019-02-23T08:41:39.004Z,63.85
2019-02-23T08:44:09.175Z,63.84
2019-02-23T08:46:39.339Z,63.71
2019-02-23T08:49:09.564Z,63.10
2019-02-23T08:51:39.714Z,62.04
2019-02-23T08:54:10.291Z,60.65
2019-02-23T08:56:40.485Z,59.13
2019-02-23T08:59:11.221Z,58.96
2019-02-23T09:01:41.404Z,59.15
2019-02-23T09:04:11.534Z,58.88
2019-02-23T09:06:41.681Z,59.38
2019-02-23T09:09:11.869Z,58.44
2019-02-23T09:11:42.010Z,58.48
2019-02-23T09:14:12.505Z,58.56
2019-02-23T09:16:42.925Z,56.98
2019-02-23T09:19:15.727Z,57.41
2019-02-23T09:21:45.886Z,57.73
2019-02-23T09:24:16.070Z,56.79
2019-02-23T09:26:46.274Z,57.94
2019-02-23T09:29:16.467Z,57.30
2019-02-23T09:31:49.711Z,56.48
2019-02-23T09:34:20.025Z,58.21
2019-02-23T09:36:50.333Z,57.72
2019-02-23T09:39:20.470Z,57.07
2019-02-23T09:41:50.598Z,55.03
2019-02-23T09:44:20.782Z,54.43
2019-02-23T09:46:50.968Z,54.50
2019-02-23T09:49:24.196Z,54.25
2019-02-23T09:51:54.690Z,54.20
2019-02-23T09:54:26.910Z,54.11
2019-02-23T09:56:57.051Z,53.79
2019-02-23T09:59:27.166Z,53.66
2019-02-23T10:01:57.422Z,53.54
2019-02-23T10:04:27.556Z,53.80
2019-02-23T10:06:57.742Z,53.31
2019-02-23T10:09:27.954Z,52.77
2019-02-23T10:11:58.190Z,52.37
2019-02-23T10:14:28.510Z,52.60
2019-02-23T10:16:58.686Z,52.16
2019-02-23T10:19:28.770Z,51.92
2019-02-23T10:21:58.933Z,52.26
2019-02-23T10:24:29.976Z,51.70
2019-02-23T10:27:00.128Z,52.20
2019-02-23T10:29:30.233Z,51.01
2019-02-23T10:32:00.376Z,51.62
2019-02-23T10:34:30.529Z,50.37
2019-02-23T10:37:00.654Z,49.74
2019-02-23T10:39:32.401Z,50.99
2019-02-23T10:42:10.188Z,51.41
2019-02-23T10:44:40.672Z,50.39
2019-02-23T10:47:11.154Z,50.92
2019-02-23T10:49:47.750Z,50.94
2019-02-23T10:52:21.205Z,49.46
2019-02-23T10:54:53.681Z,51.26
2019-02-23T10:57:24.715Z,48.70
2019-02-23T10:59:55.453Z,48.52
2019-02-23T11:02:28.603Z,49.25
2019-02-23T11:05:02.431Z,48.39
2019-02-23T11:07:35.219Z,48.07
2019-02-23T11:10:05.784Z,47.12
2019-02-23T11:12:43.068Z,48.22
2019-02-23T11:15:13.833Z,50.03
2019-02-23T11:17:44.147Z,48.52
2019-02-23T11:20:15.419Z,47.77
2019-02-23T11:22:45.959Z,47.62
2019-02-23T11:25:16.573Z,47.10
2019-02-23T11:27:47.391Z,46.46
2019-02-23T11:30:17.931Z,46.40
2019-02-23T11:32:49.776Z,46.14
2019-02-23T11:35:22.525Z,47.59
2019-02-23T11:37:52.744Z,47.22
2019-02-23T11:40:30.599Z,47.42
2019-02-23T11:43:17.351Z,47.91
2019-02-23T11:45:47.763Z,47.41
2019-02-23T11:48:18.077Z,46.35
2019-02-23T11:50:49.226Z,47.14
2019-02-23T11:53:54.410Z,46.43
2019-02-23T11:56:16.659Z,46.48
2019-02-23T11:58:47.231Z,47.30
2019-02-23T12:01:17.629Z,47.85
2019-02-23T12:03:50.857Z,45.48
2019-02-23T12:06:26.221Z,47.10
2019-02-23T12:09:02.605Z,46.34
2019-02-23T12:11:34.483Z,46.38
2019-02-23T12:14:05.761Z,45.91
2019-02-23T12:16:44.024Z,46.62
2019-02-23T12:19:14.739Z,45.65
2019-02-23T12:21:46.288Z,47.96
2019-02-23T12:24:16.465Z,45.17
2019-02-23T12:26:48.100Z,47.58
2019-02-23T12:29:18.301Z,47.21
2019-02-23T12:31:48.455Z,47.45
2019-02-23T12:34:25.615Z,48.03
2019-02-23T12:36:57.586Z,48.16
2019-02-23T12:39:29.635Z,46.53
2019-02-23T12:42:01.585Z,47.74
2019-02-23T12:44:37.610Z,47.65
2019-02-23T12:47:07.686Z,47.44
2019-02-23T12:49:40.478Z,48.25
2019-02-23T12:52:16.589Z,46.38
2019-02-23T12:54:46.817Z,47.70
2019-02-23T12:57:20.060Z,47.09
2019-02-23T12:59:53.528Z,46.83
2019-02-23T13:02:25.357Z,46.55
2019-02-23T13:04:55.531Z,45.81
2019-02-23T13:07:25.780Z,46.06
2019-02-23T13:09:56.736Z,47.15
2019-02-23T13:12:49.658Z,46.29
2019-02-23T13:15:26.551Z,46.55
2019-02-23T13:18:33.058Z,44.74
2019-02-23T13:22:03.339Z,44.95
2019-02-23T13:25:38.567Z,44.57
2019-02-23T13:28:38.792Z,43.83
2019-02-23T13:31:31.189Z,45.82
2019-02-23T13:34:49.250Z,43.56
2019-02-23T13:37:38.237Z,41.34
2019-02-23T13:40:40.094Z,43.45
2019-02-23T13:43:58.183Z,42.39
2019-02-23T13:47:21.693Z,42.24
2019-02-23T13:50:33.942Z,43.34
2019-02-23T13:53:54.168Z,42.70
2019-02-23T13:56:40.109Z,42.83
2019-02-23T13:59:38.168Z,44.52
2019-02-23T14:06:25.235Z,43.85
2019-02-23T14:09:37.546Z,43.60
2019-02-23T14:13:04.461Z,43.78
2019-02-23T14:16:30.279Z,44.38
2019-02-23T14:19:55.028Z,43.57
2019-02-23T14:22:51.188Z,44.44
2019-02-23T14:26:00.486Z,44.44
2019-02-23T14:28:53.671Z,42.72
2019-02-23T14:32:04.384Z,41.43
2019-02-23T14:35:18.886Z,41.95
2019-02-23T14:38:16.749Z,41.07
2019-02-23T14:41:16.319Z,39.89
2019-02-23T14:44:21.194Z,39.34
2019-02-23T14:47:29.409Z,40.23
2019-02-23T14:50:18.974Z,38.88
2019-02-23T14:53:15.435Z,39.16
2019-02-23T14:56:06.131Z,38.12
2019-02-23T14:59:01.251Z,39.57
2019-02-23T15:02:27.873Z,38.92
2019-02-23T15:05:26.843Z,39.10
2019-02-23T15:08:16.030Z,37.90
2019-02-23T15:11:29.973Z,36.82
2019-02-23T15:14:32.340Z,37.47
2019-02-23T15:17:29.903Z,36.58
2019-02-23T15:20:17.967Z,37.45
2019-02-23T15:23:24.330Z,36.12
2019-02-23T15:26:10.929Z,37.71
2019-02-23T15:29:34.931Z,37.58
2019-02-23T15:32:23.975Z,39.47
2019-02-23T15:35:21.837Z,40.25
2019-02-23T15:38:17.525Z,41.35
2019-02-23T15:41:24.357Z,39.90
2019-02-23T15:44:53.893Z,38.71
2019-02-23T15:48:11.160Z,38.06
2019-02-23T15:50:42.861Z,37.43
2019-02-23T15:53:16.392Z,36.92
2019-02-23T15:55:46.667Z,36.23
2019-02-23T15:58:16.809Z,36.72
2019-02-23T16:00:47.562Z,37.59
2019-02-23T16:03:17.969Z,38.69
2019-02-23T16:05:48.153Z,39.60
2019-02-23T16:08:20.184Z,40.43
2019-02-23T16:10:51.152Z,41.01
2019-02-23T16:13:21.329Z,42.98
2019-02-23T16:15:51.617Z,42.42
2019-02-23T16:18:24.310Z,43.93
2019-02-23T16:20:54.608Z,45.29
2019-02-23T16:23:34.929Z,45.72
2019-02-23T16:26:01.519Z,46.15
2019-02-23T16:28:36.476Z,47.94
2019-02-23T16:31:06.712Z,48.73
2019-02-23T16:33:40.189Z,49.55
2019-02-23T16:36:13.459Z,49.99
2019-02-23T16:38:43.721Z,50.40
2019-02-23T16:41:14.152Z,50.69
2019-02-23T16:43:44.315Z,52.04
2019-02-23T16:46:17.268Z,52.58
2019-02-23T16:48:47.456Z,51.42
2019-02-23T16:51:19.212Z,51.25
2019-02-23T16:53:50.772Z,52.52
2019-02-23T16:56:22.964Z,52.44
2019-02-23T16:58:55.101Z,52.85
2019-02-23T17:01:27.990Z,54.24
2019-02-23T17:04:00.259Z,54.95
2019-02-23T17:06:32.848Z,54.83
2019-02-23T17:09:05.043Z,55.65
2019-02-23T17:11:35.603Z,55.98
2019-02-23T17:14:12.463Z,56.48
2019-02-23T17:16:44.951Z,56.83
2019-02-23T17:19:19.618Z,56.97
2019-02-23T17:21:52.444Z,58.11
2019-02-23T17:24:24.029Z,57.93
2019-02-23T17:26:54.685Z,59.24
2019-02-23T17:29:26.394Z,60.08
2019-02-23T17:31:58.836Z,60.67
2019-02-23T17:34:28.973Z,60.97
2019-02-23T17:37:02.658Z,61.60
2019-02-23T17:39:32.821Z,61.83
2019-02-23T17:42:05.697Z,62.94
2019-02-23T17:44:35.989Z,62.01
2019-02-23T17:47:06.146Z,62.35
2019-02-23T17:49:36.449Z,62.78
2019-02-23T17:52:09.296Z,63.57
2019-02-23T17:54:39.533Z,63.19
2019-02-23T17:57:12.687Z,63.16
2019-02-23T17:59:43.175Z,63.15
2019-02-23T18:02:13.506Z,63.58
2019-02-23T18:04:44.036Z,63.88
2019-02-23T18:07:18.380Z,63.49
2019-02-23T18:09:48.685Z,63.43
2019-02-23T18:12:23.002Z,64.03
2019-02-23T18:14:54.736Z,64.14
2019-02-23T18:17:24.888Z,64.08
2019-02-23T18:19:55.219Z,63.89
2019-02-23T18:22:25.417Z,64.25
2019-02-23T18:24:55.703Z,63.96
2019-02-23T18:27:25.945Z,63.83
2019-02-23T18:29:56.656Z,63.50
2019-02-23T18:32:26.906Z,63.46
2019-02-23T18:35:02.124Z,63.47
2019-02-23T18:37:35.758Z,63.45
2019-02-23T18:40:06.408Z,63.26
2019-02-23T18:42:36.955Z,63.29
2019-02-23T18:45:10.224Z,62.98
2019-02-23T18:47:40.421Z,63.36
2019-02-23T18:50:12.877Z,63.52
2019-02-23T18:52:43.202Z,63.39
2019-02-23T18:55:14.912Z,62.93
2019-02-23T18:57:49.098Z,63.35
2019-02-23T19:00:24.597Z,63.46
2019-02-23T19:02:52.852Z,63.49
2019-02-23T19:05:24.008Z,63.49
2019-02-23T19:07:54.617Z,63.37
2019-02-23T19:10:24.802Z,63.36
2019-02-23T19:12:57.140Z,63.57
2019-02-23T19:15:28.553Z,63.92
2019-02-23T19:18:01.309Z,63.87
2019-02-23T19:20:39.030Z,63.46
2019-02-23T19:23:09.468Z,63.30
2019-02-23T19:25:39.802Z,63.61
2019-02-23T19:28:11.709Z,63.96
2019-02-23T19:30:51.356Z,63.62
2019-02-23T19:33:21.322Z,63.56
2019-02-23T19:35:54.902Z,63.56
2019-02-23T19:38:27.300Z,63.47
2019-02-23T19:40:58.559Z,63.59
2019-02-23T19:43:28.853Z,63.75
2019-02-23T19:45:59.296Z,63.75
2019-02-23T19:48:32.623Z,63.62
2019-02-23T19:51:05.600Z,63.76
2019-02-23T19:53:37.029Z,63.89
2019-02-23T19:56:07.355Z,65.02
2019-02-23T19:58:37.925Z,64.65
2019-02-23T20:01:13.275Z,64.37
2019-02-23T20:03:47.167Z,64.63
2019-02-23T20:06:17.360Z,64.39
2019-02-23T20:08:48.081Z,64.40
2019-02-23T20:11:22.826Z,64.61
2019-02-23T20:13:57.461Z,64.39
2019-02-23T20:16:27.604Z,64.48
2019-02-23T20:18:57.813Z,64.70
2019-02-23T20:21:27.959Z,64.79
2019-02-23T20:24:03.942Z,64.39
2019-02-23T20:26:34.108Z,64.64
2019-02-23T20:29:04.317Z,64.84
2019-02-23T20:31:34.533Z,64.75
2019-02-23T20:34:04.793Z,65.37
2019-02-23T20:36:34.953Z,65.74
2019-02-23T20:39:06.386Z,66.12
2019-02-23T20:41:38.185Z,65.60
2019-02-23T20:44:09.775Z,65.29
2019-02-23T20:46:40.007Z,65.21
2019-02-23T20:49:10.493Z,65.05
2019-02-23T20:51:40.762Z,65.28
2019-02-23T20:54:14.398Z,65.31
2019-02-23T20:56:47.246Z,65.36
2019-02-23T20:59:17.547Z,65.56
2019-02-23T21:01:47.875Z,65.64
2019-02-23T21:04:18.383Z,65.66
2019-02-23T21:06:50.158Z,65.63
2019-02-23T21:09:21.818Z,65.68
2019-02-23T21:11:52.043Z,66.16
2019-02-23T21:14:22.350Z,66.47
2019-02-23T21:16:54.250Z,66.45
2019-02-23T21:19:27.727Z,67.32
2019-02-23T21:21:59.543Z,67.10
2019-02-23T21:24:29.710Z,66.80
2019-02-23T21:27:01.658Z,66.63
2019-02-23T21:29:37.687Z,66.34
2019-02-23T21:32:08.091Z,66.13
2019-02-23T21:34:38.223Z,66.19
2019-02-23T21:37:10.449Z,66.32
2019-02-23T21:39:40.958Z,66.31
2019-02-23T21:42:11.234Z,66.22
2019-02-23T21:44:41.819Z,66.15
2019-02-23T21:47:12.167Z,66.07
2019-02-23T21:49:42.515Z,66.25
2019-02-23T21:52:13.095Z,66.19
2019-02-23T21:54:47.093Z,66.12
2019-02-23T21:57:22.244Z,66.07
2019-02-23T21:59:49.227Z,66.15
2019-02-23T22:02:19.462Z,66.06
2019-02-23T22:04:49.857Z,66.20
2019-02-23T22:07:21.335Z,66.36
2019-02-23T22:09:51.476Z,66.57
2019-02-23T22:12:21.638Z,66.53
2019-02-23T22:14:51.835Z,66.42
2019-02-23T22:17:22.011Z,66.40
2019-02-23T22:19:53.811Z,66.27
2019-02-23T22:22:25.425Z,66.32
2019-02-23T22:24:55.526Z,66.30
2019-02-23T22:27:31.422Z,66.43
2019-02-23T22:29:57.607Z,66.14
2019-02-23T22:32:27.762Z,66.29
2019-02-23T22:34:57.996Z,66.25
2019-02-23T22:37:28.168Z,66.29
2019-02-23T22:39:58.451Z,66.25
2019-02-23T22:42:28.625Z,66.88
2019-02-23T22:44:58.902Z,66.44
2019-02-23T22:47:29.128Z,66.37
2019-02-23T22:49:59.342Z,66.10
2019-02-23T22:52:29.577Z,66.12
2019-02-23T22:54:59.798Z,65.92
2019-02-23T22:57:29.982Z,66.01
2019-02-23T23:00:00.211Z,66.34
2019-02-23T23:02:30.363Z,66.25
2019-02-23T23:05:00.598Z,66.46
2019-02-23T23:07:31.133Z,66.27
2019-02-23T23:10:01.430Z,66.48
2019-02-23T23:12:35.998Z,66.28
2019-02-23T23:15:05.078Z,66.22
2019-02-23T23:17:36.477Z,66.22
2019-02-23T23:20:06.638Z,66.33
2019-02-23T23:22:36.806Z,66.37
2019-02-23T23:25:07.152Z,66.31
2019-02-23T23:27:37.335Z,65.91
2019-02-23T23:30:07.726Z,66.76
2019-02-23T23:32:37.995Z,66.72
2019-02-23T23:35:08.200Z,66.60
2019-02-23T23:37:38.804Z,66.55
2019-02-23T23:40:09.914Z,66.57
2019-02-23T23:42:40.051Z,66.60
2019-02-23T23:45:10.260Z,66.52
2019-02-23T23:47:40.391Z,66.51
2019-02-23T23:50:10.943Z,66.64
2019-02-23T23:52:41.604Z,66.75
2019-02-23T23:55:12.989Z,67.10
2019-02-23T23:57:43.109Z,66.76
